Time;durP1;ratioP1;P1;durP2;ratioP2;P2;SDS_P1;SDS_P2;PMS_P1;PMS_P2;Temp;Humidity;BMP_temperature;BMP_pressure;BME280_temperature;BME280_humidity;BME280_pressure;Samples;Min_cycle;Max_cycle;Signal;HPM_P1;HPM_P2
2022/03/10 00:00:48;;;;;;;8.05;4.53;;;;;;;1.44;49.09;100536.67;1661246;86;21073;-59
2022/03/10 00:03:17;;;;;;;7.80;4.20;;;;;;;1.41;49.00;100538.65;1662061;85;21250;-60
2022/03/10 00:05:44;;;;;;;10.78;4.58;;;;;;;1.35;48.82;100535.25;1665080;85;21028;-60
2022/03/10 00:08:13;;;;;;;8.55;4.08;;;;;;;1.23;49.04;100535.72;1652925;85;21154;-67
2022/03/10 00:10:41;;;;;;;8.90;4.37;;;;;;;1.24;49.01;100540.38;1607538;89;21669;-60
2022/03/10 00:13:08;;;;;;;10.82;4.62;;;;;;;1.14;49.33;100537.70;1664436;85;21105;-60
2022/03/10 00:15:37;;;;;;;8.58;4.33;;;;;;;1.25;49.02;100531.73;1665605;85;21167;-61
2022/03/10 00:18:05;;;;;;;9.90;4.28;;;;;;;1.19;48.95;100532.56;1652993;85;21105;-61
2022/03/10 00:20:33;;;;;;;7.80;3.90;;;;;;;1.10;49.09;100530.70;1656720;85;21515;-61
2022/03/10 00:23:02;;;;;;;9.20;4.15;;;;;;;1.07;49.13;100534.78;1662703;85;21659;-61
2022/03/10 00:25:33;;;;;;;10.23;4.47;;;;;;;0.98;49.26;100530.31;1666042;85;20990;-72
2022/03/10 00:28:01;;;;;;;11.48;4.75;;;;;;;1.08;49.01;100529.98;1665711;84;22392;-60
2022/03/10 00:30:28;;;;;;;10.10;4.75;;;;;;;0.96;49.02;100529.63;1665406;85;21566;-59
2022/03/10 00:32:56;;;;;;;9.95;4.87;;;;;;;0.89;49.27;100531.82;1665290;84;21065;-61
2022/03/10 00:35:25;;;;;;;7.78;4.10;;;;;;;0.96;49.10;100525.77;1665637;84;21534;-61
2022/03/10 00:37:53;;;;;;;7.83;4.35;;;;;;;0.89;48.94;100532.30;1656380;85;21061;-60
2022/03/10 00:40:22;;;;;;;8.78;4.47;;;;;;;0.90;48.93;100528.78;1665727;84;21271;-71
2022/03/10 00:42:49;;;;;;;7.62;3.90;;;;;;;1.00;48.80;100536.16;1666144;85;22091;-59
2022/03/10 00:45:17;;;;;;;9.03;4.25;;;;;;;1.05;48.66;100535.34;1665827;85;20985;-61
2022/03/10 00:47:44;;;;;;;9.75;4.08;;;;;;;1.03;48.59;100536.41;1665716;85;21065;-63
2022/03/10 00:50:11;;;;;;;6.85;3.42;;;;;;;0.86;48.75;100530.77;1663304;85;21073;-71
2022/03/10 00:52:46;;;;;;;7.92;3.95;;;;;;;0.91;49.00;100536.83;1665668;85;21140;-59
2022/03/10 00:55:16;;;;;;;8.58;4.20;;;;;;;0.92;48.93;100533.35;1665482;85;21077;-60
2022/03/10 00:57:44;;;;;;;7.55;3.80;;;;;;;0.90;48.88;100541.15;1665987;85;21113;-70
2022/03/10 01:00:12;;;;;;;8.10;4.08;;;;;;;0.98;48.71;100529.03;1664930;85;20979;-62
2022/03/10 01:02:40;;;;;;;9.80;3.95;;;;;;;0.96;48.75;100530.91;1666263;85;21041;-60
2022/03/10 01:05:09;;;;;;;8.68;4.30;;;;;;;1.00;48.80;100527.18;1652822;83;21167;-59
2022/03/10 01:07:36;;;;;;;7.72;3.60;;;;;;;1.00;48.66;100531.03;1656073;86;20955;-60
2022/03/10 01:10:06;;;;;;;7.62;3.37;;;;;;;1.18;48.44;100528.37;1655464;86;21102;-72
2022/03/10 01:12:35;;;;;;;9.40;4.20;;;;;;;1.26;48.31;100527.79;1656509;85;20998;-61
2022/03/10 01:15:05;;;;;;;6.62;3.80;;;;;;;1.36;48.28;100526.14;1653639;85;21687;-59
2022/03/10 01:17:33;;;;;;;6.97;4.00;;;;;;;1.46;48.13;100527.08;1656520;86;21238;-60
2022/03/10 01:20:01;;;;;;;8.60;4.15;;;;;;;1.52;48.08;100524.52;1653156;86;21086;-70
2022/03/10 01:22:28;;;;;;;8.73;4.30;;;;;;;1.51;48.17;100524.15;1656434;86;21154;-60
2022/03/10 01:24:55;;;;;;;8.40;4.05;;;;;;;1.39;48.29;100523.81;1655753;86;22273;-61
2022/03/10 01:27:23;;;;;;;6.92;4.08;;;;;;;1.43;48.19;100523.92;1656583;85;21622;-59
2022/03/10 01:29:51;;;;;;;7.95;3.67;;;;;;;1.29;48.41;100524.15;1652341;85;21125;-60
2022/03/10 01:32:19;;;;;;;9.00;3.98;;;;;;;1.53;47.88;100520.20;1639592;86;22386;-59
2022/03/10 01:34:46;;;;;;;8.00;3.60;;;;;;;1.52;47.81;100521.95;1657206;86;21136;-60
2022/03/10 01:37:14;;;;;;;7.22;3.67;;;;;;;1.57;47.70;100525.44;1657037;86;21557;-62
2022/03/10 01:39:41;;;;;;;6.83;3.60;;;;;;;1.69;47.65;100536.86;1657253;86;21096;-68
2022/03/10 01:42:09;;;;;;;8.08;3.85;;;;;;;1.63;47.75;100527.08;1656287;86;21266;-67
2022/03/10 01:44:36;;;;;;;7.35;3.55;;;;;;;1.86;47.58;100529.61;1657075;86;21112;-59
2022/03/10 01:47:05;;;;;;;9.33;3.50;;;;;;;1.63;47.68;100530.94;1656806;86;21148;-60
2022/03/10 01:49:35;;;;;;;9.18;3.87;;;;;;;1.46;48.07;100533.97;1648933;86;21103;-70
2022/03/10 01:52:04;;;;;;;11.08;3.75;;;;;;;1.53;48.25;100534.33;1656635;85;21084;-71
2022/03/10 01:54:31;;;;;;;9.70;3.90;;;;;;;1.48;48.61;100534.69;1657017;86;22095;-59
2022/03/10 01:57:00;;;;;;;7.30;3.62;;;;;;;1.46;48.87;100541.67;1648496;86;21555;-59
2022/03/10 01:59:27;;;;;;;9.13;4.42;;;;;;;1.56;48.88;100533.62;1657243;85;21108;-59
2022/03/10 02:01:55;;;;;;;7.22;4.45;;;;;;;1.55;49.07;100542.72;1655990;86;20989;-66
2022/03/10 02:04:22;;;;;;;7.75;3.85;;;;;;;1.56;49.12;100540.05;1661952;85;21110;-59
2022/03/10 02:06:50;;;;;;;9.58;3.90;;;;;;;1.53;48.93;100547.17;1670026;85;21306;-62
2022/03/10 02:12:06;;;;;;;9.55;3.90;;;;;;;1.53;48.74;100549.73;1669890;84;21577;-60
2022/03/10 02:17:19;;;;;;;9.25;4.45;;;;;;;1.57;48.23;100547.28;1669332;85;21026;-60
2022/03/10 02:19:53;;;;;;;6.62;3.52;;;;;;;1.49;48.03;100551.72;1668959;85;22265;-61
2022/03/10 02:22:21;;;;;;;9.78;4.00;;;;;;;1.42;48.06;100551.36;1669853;85;21115;-60
2022/03/10 02:24:49;;;;;;;8.83;3.80;;;;;;;1.37;48.07;100552.66;1669958;85;21451;-70
2022/03/10 02:27:24;;;;;;;8.78;4.03;;;;;;;1.34;47.90;100554.98;1669549;84;21617;-61
2022/03/10 02:29:58;;;;;;;6.58;3.87;;;;;;;1.36;47.98;100555.67;1669764;85;21669;-60
2022/03/10 02:32:25;;;;;;;7.62;3.50;;;;;;;1.26;48.06;100556.04;1669583;85;21673;-59
2022/03/10 02:34:54;;;;;;;9.88;3.83;;;;;;;1.15;47.98;100557.31;1669406;85;21064;-67
2022/03/10 02:37:21;;;;;;;9.18;4.25;;;;;;;1.19;48.29;100560.81;1669504;85;21096;-71
2022/03/10 02:39:48;;;;;;;10.53;4.58;;;;;;;1.26;48.24;100558.61;1669363;85;21569;-62
2022/03/10 02:42:17;;;;;;;6.33;3.58;;;;;;;1.38;47.75;100559.42;1667838;84;21064;-60
2022/03/10 02:44:47;;;;;;;8.05;3.50;;;;;;;1.40;47.66;100560.11;1670032;85;21328;-70
2022/03/10 02:47:14;;;;;;;7.40;3.70;;;;;;;1.43;47.57;100565.02;1611185;88;21122;-60
2022/03/10 02:49:43;;;;;;;8.50;3.87;;;;;;;1.40;47.37;100562.67;1640238;87;21041;-61
2022/03/10 02:52:10;;;;;;;9.60;5.05;;;;;;;1.44;47.39;100562.83;1638876;87;22336;-61
2022/03/10 02:54:38;;;;;;;8.13;3.27;;;;;;;1.27;47.89;100555.56;1639956;87;21117;-62
2022/03/10 02:57:06;;;;;;;7.55;3.27;;;;;;;1.47;48.04;100561.28;1639153;87;21149;-63
2022/03/10 02:59:33;;;;;;;8.03;3.80;;;;;;;1.64;47.67;100569.81;1639711;87;21622;-61
2022/03/10 03:02:02;;;;;;;6.37;3.40;;;;;;;1.61;47.55;100564.91;1639554;87;21628;-60
2022/03/10 03:04:29;;;;;;;7.40;3.83;;;;;;;1.60;47.16;100570.17;1645980;85;21002;-61
2022/03/10 03:06:56;;;;;;;8.13;3.95;;;;;;;1.32;46.97;100567.58;1660196;85;21586;-68
2022/03/10 03:09:25;;;;;;;8.73;3.95;;;;;;;1.53;46.62;100567.25;1661353;85;21284;-61
2022/03/10 03:11:52;;;;;;;8.88;3.83;;;;;;;1.44;46.30;100571.81;1662237;85;21069;-59
2022/03/10 03:14:23;;;;;;;7.55;3.67;;;;;;;1.44;46.16;100563.64;1667004;84;21096;-59
2022/03/10 03:16:57;;;;;;;11.90;3.95;;;;;;;1.51;45.74;100569.58;1662122;86;21026;-64
2022/03/10 03:19:25;;;;;;;8.60;4.28;;;;;;;1.48;45.49;100573.22;1651854;86;21132;-61
2022/03/10 03:21:53;;;;;;;7.72;3.83;;;;;;;1.42;45.65;100573.67;1661809;84;21034;-61
2022/03/10 03:24:21;;;;;;;7.75;3.55;;;;;;;1.38;45.91;100575.66;1661915;85;20977;-60
2022/03/10 03:26:49;;;;;;;10.43;3.62;;;;;;;1.39;46.16;100576.46;1661937;86;20999;-69
2022/03/10 03:29:16;;;;;;;9.58;3.87;;;;;;;1.32;46.33;100577.86;1661010;84;21199;-70
2022/03/10 03:31:43;;;;;;;9.03;3.98;;;;;;;1.45;46.09;100579.39;1661780;86;21091;-61
2022/03/10 03:34:13;;;;;;;7.60;3.35;;;;;;;1.39;45.98;100582.41;1661608;86;21174;-61
2022/03/10 03:36:43;;;;;;;9.25;3.98;;;;;;;1.25;46.62;100575.39;1661313;86;21064;-62
2022/03/10 03:39:10;;;;;;;6.47;2.75;;;;;;;1.09;47.08;100585.99;1660460;86;21557;-60
2022/03/10 03:41:37;;;;;;;6.50;3.37;;;;;;;1.07;47.22;100584.84;1661755;86;21032;-63
2022/03/10 03:44:08;;;;;;;9.78;3.50;;;;;;;1.16;47.02;100582.05;1661687;86;21539;-61
2022/03/10 03:46:36;;;;;;;7.97;4.08;;;;;;;1.05;47.02;100586.69;1662002;86;21241;-62
2022/03/10 03:49:04;;;;;;;7.17;3.52;;;;;;;0.99;46.98;100584.59;1661828;86;21072;-61
2022/03/10 03:51:32;;;;;;;10.20;4.08;;;;;;;0.82;47.02;100590.13;1661013;86;21098;-61
2022/03/10 03:53:59;;;;;;;7.45;3.62;;;;;;;0.64;47.52;100593.55;1661536;86;20994;-64
2022/03/10 03:56:27;;;;;;;10.03;3.85;;;;;;;0.56;47.83;100588.98;1662134;86;21052;-62
2022/03/10 03:58:55;;;;;;;7.85;4.12;;;;;;;0.65;47.53;100599.06;1661432;86;21589;-60
2022/03/10 04:01:23;;;;;;;9.18;3.98;;;;;;;0.71;47.25;100595.56;1696333;79;21534;-61
2022/03/10 04:03:50;;;;;;;8.68;4.03;;;;;;;0.58;47.19;100601.71;1778549;80;21090;-61
2022/03/10 04:06:18;;;;;;;8.25;3.42;;;;;;;0.57;47.23;100607.31;1769607;79;21045;-60
2022/03/10 04:08:46;;;;;;;7.10;3.00;;;;;;;0.60;47.19;100603.22;1781156;79;21114;-68
2022/03/10 04:11:14;;;;;;;7.00;3.47;;;;;;;0.57;47.12;100600.90;1780336;79;21214;-62
2022/03/10 04:13:43;;;;;;;7.50;3.35;;;;;;;0.66;46.87;100613.05;1783045;80;21061;-61
2022/03/10 04:16:12;;;;;;;6.25;3.80;;;;;;;0.69;46.72;100616.69;1779708;80;21548;-63
2022/03/10 04:18:40;;;;;;;8.43;2.92;;;;;;;0.72;46.75;100624.63;1781478;80;21022;-62
2022/03/10 04:21:07;;;;;;;8.78;3.22;;;;;;;0.76;46.44;100617.06;1781612;80;21081;-60
2022/03/10 04:23:35;;;;;;;8.05;3.98;;;;;;;0.84;46.36;100613.48;1779237;80;21251;-59
2022/03/10 04:26:02;;;;;;;9.50;4.47;;;;;;;0.95;46.45;100620.40;1781384;80;21615;-60
2022/03/10 04:28:29;;;;;;;8.30;3.92;;;;;;;1.03;46.22;100614.70;1775692;80;21054;-62
2022/03/10 04:30:57;;;;;;;9.95;3.58;;;;;;;1.07;46.04;100607.94;1778738;80;20916;-61
2022/03/10 04:33:26;;;;;;;7.53;3.60;;;;;;;1.09;46.06;100612.95;1765513;80;22387;-61
2022/03/10 04:35:56;;;;;;;7.72;3.50;;;;;;;1.27;45.67;100610.78;1770882;80;21219;-62
2022/03/10 04:38:23;;;;;;;9.18;3.65;;;;;;;1.20;45.53;100612.51;1766206;80;20953;-62
2022/03/10 04:40:50;;;;;;;6.17;3.05;;;;;;;1.18;45.50;100618.23;1773364;80;20931;-69
2022/03/10 04:43:19;;;;;;;10.18;3.92;;;;;;;1.17;45.45;100615.77;1772124;80;21378;-61
2022/03/10 04:45:46;;;;;;;7.50;3.10;;;;;;;1.23;45.56;100617.89;1771368;78;21124;-63
2022/03/10 04:48:13;;;;;;;7.65;3.30;;;;;;;1.01;45.83;100619.93;1770704;80;21541;-62
2022/03/10 04:50:40;;;;;;;9.93;4.42;;;;;;;1.03;46.21;100622.41;1759454;80;21106;-70
2022/03/10 04:53:07;;;;;;;7.25;3.30;;;;;;;1.21;46.33;100630.86;1766077;78;21096;-61
2022/03/10 04:55:35;;;;;;;8.00;4.22;;;;;;;1.17;46.56;100620.91;1773944;80;21041;-64
2022/03/10 04:58:02;;;;;;;6.45;3.12;;;;;;;1.21;47.09;100632.14;1772375;80;21058;-60
2022/03/10 05:00:31;;;;;;;14.55;5.40;;;;;;;1.39;47.29;100632.97;1762394;80;21028;-61
2022/03/10 05:02:58;;;;;;;7.90;3.87;;;;;;;1.64;46.87;100637.91;1758976;80;21052;-69
2022/03/10 05:05:25;;;;;;;7.55;3.30;;;;;;;1.29;47.72;100638.43;1766399;80;21059;-61
2022/03/10 05:07:54;;;;;;;7.40;3.30;;;;;;;1.51;47.99;100653.07;1755891;80;21602;-62
2022/03/10 05:10:22;;;;;;;6.47;3.22;;;;;;;1.50;47.95;100641.16;1762374;80;20969;-64
2022/03/10 05:12:51;;;;;;;7.60;3.95;;;;;;;1.60;48.15;100655.78;1756407;80;21152;-62
2022/03/10 05:15:23;;;;;;;6.45;3.12;;;;;;;1.70;47.80;100656.73;1768121;80;21141;-62
2022/03/10 05:17:52;;;;;;;6.42;3.22;;;;;;;1.33;48.15;100653.52;1765766;80;21552;-61
2022/03/10 05:20:19;;;;;;;5.15;2.47;;;;;;;1.40;47.86;100651.30;1759596;80;21536;-60
2022/03/10 05:22:52;;;;;;;6.10;3.08;;;;;;;1.02;48.59;100658.78;1767066;79;20939;-62
2022/03/10 05:25:21;;;;;;;6.60;3.30;;;;;;;1.12;48.43;100658.94;1775248;80;21150;-61
2022/03/10 05:27:49;;;;;;;6.15;2.77;;;;;;;1.38;48.38;100657.03;1770224;79;21333;-62
2022/03/10 05:30:18;;;;;;;6.12;2.77;;;;;;;1.46;47.48;100658.55;1765373;80;21419;-60
2022/03/10 05:32:45;;;;;;;5.17;2.45;;;;;;;1.60;47.11;100645.97;1754437;80;21478;-65
2022/03/10 05:35:17;;;;;;;5.90;3.15;;;;;;;1.85;47.39;100647.48;1713756;82;21101;-62
2022/03/10 05:37:45;;;;;;;5.85;2.92;;;;;;;2.01;46.68;100652.27;1723439;81;21650;-63
2022/03/10 05:40:18;;;;;;;6.45;3.47;;;;;;;2.09;47.29;100653.80;1694806;83;21044;-64
2022/03/10 05:42:46;;;;;;;10.03;2.65;;;;;;;2.13;46.95;100654.73;1686013;83;21200;-62
2022/03/10 05:45:14;;;;;;;6.67;3.00;;;;;;;2.07;48.85;100655.19;1697887;82;21037;-63
2022/03/10 05:47:42;;;;;;;6.65;2.90;;;;;;;2.12;49.70;100656.96;1704100;82;21073;-66
2022/03/10 05:50:10;;;;;;;5.80;2.98;;;;;;;2.30;50.15;100651.30;1694051;83;21157;-66
2022/03/10 05:52:37;;;;;;;5.92;2.50;;;;;;;2.75;50.07;100652.47;1734883;81;21000;-67
2022/03/10 05:55:06;;;;;;;5.15;2.58;;;;;;;3.22;49.69;100659.39;1712700;82;22517;-62
2022/03/10 05:57:33;;;;;;;6.75;3.20;;;;;;;3.36;48.17;100656.51;1717024;82;21075;-64
2022/03/10 06:00:00;;;;;;;5.30;2.15;;;;;;;3.63;46.42;100650.81;1736180;82;21076;-63
2022/03/10 06:02:29;;;;;;;6.12;3.02;;;;;;;3.26;47.12;100657.75;1699332;83;21322;-69
2022/03/10 06:05:00;;;;;;;6.00;3.20;;;;;;;3.32;46.28;100657.23;1756662;80;21026;-62
2022/03/10 06:07:28;;;;;;;6.58;2.80;;;;;;;3.51;44.87;100656.52;1756751;79;21035;-60
2022/03/10 06:09:56;;;;;;;7.40;3.20;;;;;;;3.68;44.13;100661.58;1759761;80;21129;-62
2022/03/10 06:12:24;;;;;;;6.28;3.20;;;;;;;3.82;44.32;100661.69;1758734;80;21033;-68
2022/03/10 06:14:55;;;;;;;6.10;2.92;;;;;;;3.99;43.70;100658.52;1762311;80;21010;-61
2022/03/10 06:17:22;;;;;;;7.45;3.52;;;;;;;4.13;43.99;100658.64;1762732;80;21473;-63
2022/03/10 06:19:49;;;;;;;7.33;2.95;;;;;;;4.53;42.66;100652.12;1754048;80;21023;-62
2022/03/10 06:22:18;;;;;;;7.10;3.10;;;;;;;4.64;41.88;100656.34;1759148;80;21442;-65
2022/03/10 06:24:45;;;;;;;6.67;3.60;;;;;;;4.80;41.62;100656.63;1758847;79;21141;-63
2022/03/10 06:27:14;;;;;;;6.40;3.25;;;;;;;4.87;40.90;100651.73;1755470;80;22378;-62
2022/03/10 06:29:42;;;;;;;6.65;2.72;;;;;;;4.93;39.66;100653.78;1710608;82;20970;-61
2022/03/10 06:32:11;;;;;;;6.67;3.00;;;;;;;5.20;38.98;100652.27;1775438;79;20939;-75
2022/03/10 06:34:39;;;;;;;7.17;3.25;;;;;;;5.22;37.94;100655.03;1769266;78;21097;-71
2022/03/10 06:37:07;;;;;;;7.25;3.45;;;;;;;5.24;38.34;100648.45;1771394;80;21094;-60
2022/03/10 06:39:35;;;;;;;6.25;2.58;;;;;;;5.11;37.93;100642.26;1765221;80;21264;-62
2022/03/10 06:42:03;;;;;;;5.42;2.87;;;;;;;4.88;37.92;100644.31;1767159;78;21828;-65
2022/03/10 06:44:31;;;;;;;6.15;2.98;;;;;;;4.88;37.49;100648.19;1764669;80;21540;-74
2022/03/10 06:46:58;;;;;;;5.28;2.77;;;;;;;4.73;37.46;100650.36;1768108;80;21097;-63
2022/03/10 06:49:26;;;;;;;6.35;2.83;;;;;;;4.38;38.14;100650.39;1766848;78;22263;-63
2022/03/10 06:51:54;;;;;;;4.67;2.40;;;;;;;4.41;38.75;100651.91;1714948;81;21846;-65
2022/03/10 06:54:21;;;;;;;13.30;5.12;;;;;;;4.52;38.80;100651.78;1772767;80;21068;-75
2022/03/10 06:56:49;;;;;;;11.33;5.20;;;;;;;4.54;38.25;100649.06;1771239;78;21094;-65
2022/03/10 06:59:17;;;;;;;9.35;3.90;;;;;;;4.45;37.92;100644.71;1761889;80;21164;-67
2022/03/10 07:01:45;;;;;;;6.53;2.70;;;;;;;4.49;36.89;100635.75;1770023;78;21097;-63
2022/03/10 07:04:13;;;;;;;7.95;3.20;;;;;;;4.33;36.66;100644.02;1740529;80;22268;-69
2022/03/10 07:06:40;;;;;;;7.12;3.10;;;;;;;4.11;37.45;100643.27;1762654;80;21516;-62
2022/03/10 07:09:08;;;;;;;10.38;3.62;;;;;;;3.87;38.49;100646.19;1769048;80;21093;-61
2022/03/10 07:11:36;;;;;;;6.08;2.77;;;;;;;4.10;39.13;100645.52;1768807;80;21070;-61
2022/03/10 07:14:03;;;;;;;8.25;3.58;;;;;;;4.25;38.53;100650.31;1768335;80;21077;-62
2022/03/10 07:16:32;;;;;;;8.63;2.90;;;;;;;4.29;41.87;100638.30;1760699;80;20944;-62
2022/03/10 07:19:01;;;;;;;6.08;2.20;;;;;;;4.15;46.35;100639.95;1766957;80;21416;-63
2022/03/10 07:21:28;;;;;;;5.72;3.08;;;;;;;3.89;46.41;100651.20;1766913;80;21090;-61
2022/03/10 07:23:56;;;;;;;6.97;2.87;;;;;;;3.90;45.46;100656.70;1769139;79;21081;-59
2022/03/10 07:26:23;;;;;;;6.83;3.85;;;;;;;3.69;46.47;100652.89;1772523;79;21469;-61
2022/03/10 07:28:50;;;;;;;5.83;2.90;;;;;;;3.79;44.21;100642.61;1761821;80;21284;-68
2022/03/10 07:31:17;;;;;;;6.45;3.10;;;;;;;3.62;42.65;100640.17;1775018;80;20981;-61
2022/03/10 07:33:45;;;;;;;6.28;2.58;;;;;;;3.46;42.44;100646.27;1760034;80;21046;-60
2022/03/10 07:36:13;;;;;;;4.95;2.52;;;;;;;3.43;41.70;100648.62;1776010;80;21069;-60
2022/03/10 07:38:40;;;;;;;6.25;2.62;;;;;;;3.60;40.99;100658.36;1761294;80;21647;-63
2022/03/10 07:41:08;;;;;;;6.00;2.40;;;;;;;3.48;40.48;100642.59;1764631;80;21272;-62
2022/03/10 07:43:36;;;;;;;6.70;3.20;;;;;;;3.83;39.69;100641.43;1728761;81;21787;-63
2022/03/10 07:46:05;;;;;;;5.92;2.87;;;;;;;3.70;40.92;100644.69;1716159;82;20972;-63
2022/03/10 07:48:33;;;;;;;6.80;2.62;;;;;;;3.82;40.79;100638.01;1713215;81;20917;-59
2022/03/10 07:51:01;;;;;;;6.15;3.20;;;;;;;4.35;38.92;100635.65;1733306;82;21032;-59
2022/03/10 07:53:28;;;;;;;7.62;2.35;;;;;;;4.81;39.01;100638.91;1735156;82;21493;-64
2022/03/10 07:55:57;;;;;;;6.60;3.08;;;;;;;5.01;39.11;100644.87;1771779;80;21022;-62
2022/03/10 07:58:25;;;;;;;7.87;3.40;;;;;;;5.29;37.40;100643.19;1766979;79;21081;-72
2022/03/10 08:00:57;;;;;;;9.40;3.20;;;;;;;5.31;37.76;100640.48;1765301;80;21089;-70
2022/03/10 08:03:25;;;;;;;;;;;;;;;5.60;37.17;100641.19;1759688;79;21062;-60
2022/03/10 08:05:54;;;;;;;7.58;2.77;;;;;;;5.96;35.80;100636.20;1755542;80;20105;-65
2022/03/10 08:08:22;;;;;;;6.40;3.10;;;;;;;5.92;35.86;100634.86;1753672;80;21112;-62
2022/03/10 08:10:49;;;;;;;6.62;3.05;;;;;;;6.12;36.37;100639.45;1753657;80;21070;-66
2022/03/10 08:13:18;;;;;;;11.10;5.85;;;;;;;6.13;35.82;100636.38;1759460;80;21101;-64
2022/03/10 08:15:47;;;;;;;5.92;2.65;;;;;;;6.15;36.21;100641.75;1754174;80;21065;-61
2022/03/10 08:18:14;;;;;;;6.87;3.02;;;;;;;5.97;35.88;100652.05;1752866;80;22318;-62
2022/03/10 08:20:43;;;;;;;5.95;2.80;;;;;;;5.54;35.83;100652.60;1757824;80;22166;-63
2022/03/10 08:23:11;;;;;;;8.35;4.00;;;;;;;5.21;36.19;100649.53;1759095;80;21062;-66
2022/03/10 08:25:42;;;;;;;7.70;3.60;;;;;;;5.34;36.84;100645.34;1755087;79;21061;-67
2022/03/10 08:28:10;;;;;;;15.03;5.50;;;;;;;5.69;36.04;100654.26;1759604;80;21028;-67
2022/03/10 08:30:38;;;;;;;10.50;5.37;;;;;;;5.85;36.21;100648.80;1764488;79;21706;-65
2022/03/10 08:33:08;;;;;;;6.08;3.40;;;;;;;6.23;36.34;100647.50;1754491;79;22324;-67
2022/03/10 08:35:36;;;;;;;6.70;3.55;;;;;;;6.56;34.66;100648.66;1747929;80;21090;-67
2022/03/10 08:38:03;;;;;;;7.10;3.33;;;;;;;6.40;33.82;100650.58;1754174;80;21109;-67
2022/03/10 08:40:30;;;;;;;6.25;3.42;;;;;;;5.46;34.39;100655.08;1756445;80;20916;-67
2022/03/10 08:42:58;;;;;;;6.55;3.87;;;;;;;5.79;33.98;100654.53;1754280;80;22048;-68
2022/03/10 08:45:25;;;;;;;7.00;3.52;;;;;;;5.95;34.02;100659.16;1757900;80;21479;-68
2022/03/10 08:47:55;;;;;;;7.95;3.45;;;;;;;5.97;33.93;100653.34;1752049;80;21037;-69
2022/03/10 08:50:22;;;;;;;5.55;2.98;;;;;;;6.02;33.87;100656.34;1758342;80;21321;-66
2022/03/10 08:52:50;;;;;;;6.55;3.37;;;;;;;6.01;34.19;100653.39;1755941;79;20975;-67
2022/03/10 08:55:17;;;;;;;7.58;4.42;;;;;;;6.13;35.10;100653.20;1759539;80;22080;-67
2022/03/10 08:57:48;;;;;;;11.12;4.47;;;;;;;6.24;35.12;100639.58;1755276;80;21038;-68
2022/03/10 09:00:18;;;;;;;12.20;6.05;;;;;;;6.27;34.70;100654.02;1763590;80;21502;-68
2022/03/10 09:02:45;;;;;;;7.05;3.77;;;;;;;6.36;34.67;100658.30;1751695;80;21018;-65
2022/03/10 09:05:13;;;;;;;8.43;4.22;;;;;;;6.21;34.88;100664.94;1694682;83;21094;-67
2022/03/10 09:07:43;;;;;;;10.93;4.92;;;;;;;6.41;35.25;100663.89;1711467;83;21097;-64
2022/03/10 09:10:10;;;;;;;8.85;4.87;;;;;;;6.64;34.75;100659.09;1715263;82;21062;-62
2022/03/10 09:12:40;;;;;;;9.10;3.67;;;;;;;6.47;34.89;100657.29;1714254;83;21024;-63
2022/03/10 09:15:08;;;;;;;8.08;3.98;;;;;;;6.38;34.59;100658.99;1711416;83;21006;-65
2022/03/10 09:17:35;;;;;;;8.30;3.40;;;;;;;6.07;35.17;100659.30;1711563;83;21067;-67
2022/03/10 09:20:08;;;;;;;6.90;3.50;;;;;;;5.89;34.63;100660.17;1711432;83;22508;-61
2022/03/10 09:22:32;;;;;;;5.78;3.20;;;;;;;5.60;35.38;100665.77;1707447;82;20930;-62
2022/03/10 09:25:02;;;;;;;6.60;3.58;;;;;;;5.43;35.23;100666.50;1719806;82;21091;-65
2022/03/10 09:27:29;;;;;;;6.10;3.40;;;;;;;5.07;34.97;100647.36;1710048;82;21122;-61
2022/03/10 09:29:59;;;;;;;7.87;4.00;;;;;;;4.97;35.15;100664.18;1717612;82;21510;-64
2022/03/10 09:32:35;;;;;;;8.28;4.28;;;;;;;4.97;35.47;100657.72;1685327;84;21173;-62
2022/03/10 09:35:04;;;;;;;9.68;4.85;;;;;;;5.13;35.29;100655.39;1728229;82;20951;-63
2022/03/10 09:37:32;;;;;;;12.45;5.53;;;;;;;5.20;35.90;100649.68;1717008;82;21071;-67
2022/03/10 09:40:00;;;;;;;9.15;4.25;;;;;;;5.16;35.13;100654.30;1718642;82;20936;-63
2022/03/10 09:42:30;;;;;;;6.62;3.17;;;;;;;5.12;34.84;100648.59;1721320;82;21056;-64
2022/03/10 09:44:59;;;;;;;9.03;4.20;;;;;;;5.08;35.41;100649.83;1719573;82;21944;-69
2022/03/10 09:47:26;;;;;;;8.83;4.70;;;;;;;5.32;36.14;100651.15;1684949;84;21126;-62
2022/03/10 09:49:54;;;;;;;10.93;5.15;;;;;;;5.69;36.61;100651.19;1692384;84;21034;-65
2022/03/10 09:52:22;;;;;;;8.80;5.17;;;;;;;5.75;36.76;100654.97;1713809;82;21534;-60
2022/03/10 09:54:49;;;;;;;8.83;4.85;;;;;;;5.59;35.91;100658.16;1703196;81;21399;-66
2022/03/10 09:57:17;;;;;;;8.08;3.90;;;;;;;5.49;36.60;100653.48;1717932;82;22483;-62
2022/03/10 09:59:52;;;;;;;7.00;3.55;;;;;;;5.11;38.94;100649.56;1721198;82;20961;-68
2022/03/10 10:02:20;;;;;;;9.63;3.92;;;;;;;4.98;39.57;100643.84;1717083;82;20993;-61
2022/03/10 10:04:52;;;;;;;7.10;3.67;;;;;;;4.75;39.33;100645.08;1726867;81;21091;-61
2022/03/10 10:07:24;;;;;;;8.40;3.42;;;;;;;4.63;39.13;100654.25;1779783;78;21693;-65
2022/03/10 10:09:57;;;;;;;6.55;3.08;;;;;;;4.54;39.26;100644.70;1775072;78;21269;-61
2022/03/10 10:12:30;;;;;;;10.82;4.85;;;;;;;4.32;39.39;100656.59;1742041;80;20957;-63
2022/03/10 10:15:00;;;;;;;9.95;5.12;;;;;;;4.14;39.64;100654.63;1777823;78;21403;-62
2022/03/10 10:17:31;;;;;;;7.58;4.00;;;;;;;4.19;39.41;100649.55;1777184;78;21022;-60
2022/03/10 10:20:00;;;;;;;9.10;3.22;;;;;;;4.13;40.54;100659.45;1773317;80;21090;-61
2022/03/10 10:22:28;;;;;;;6.10;3.20;;;;;;;4.16;40.28;100651.91;1775436;78;21308;-65
2022/03/10 10:25:05;;;;;;;9.88;3.45;;;;;;;4.17;39.64;100652.72;1782311;78;20896;-66
2022/03/10 10:27:33;;;;;;;6.67;3.15;;;;;;;4.12;38.94;100659.09;1777490;78;21567;-62
2022/03/10 10:30:05;;;;;;;7.30;3.42;;;;;;;4.35;38.78;100661.45;1744815;80;21047;-63
2022/03/10 10:32:52;;;;;;;11.53;6.03;;;;;;;4.71;38.77;100652.28;1775993;80;21003;-65
2022/03/10 10:35:22;;;;;;;9.38;4.58;;;;;;;4.92;38.17;100651.32;1758260;78;22308;-59
2022/03/10 10:37:52;;;;;;;12.90;6.33;;;;;;;4.90;36.77;100646.78;1767953;78;20983;-61
2022/03/10 10:40:27;;;;;;;8.63;3.75;;;;;;;4.80;36.36;100655.80;1771559;78;21147;-61
2022/03/10 10:42:55;;;;;;;7.25;4.10;;;;;;;4.81;37.29;100643.22;1778851;78;21631;-62
2022/03/10 10:45:34;;;;;;;12.10;6.05;;;;;;;4.99;35.89;100640.30;1769831;80;21101;-62
2022/03/10 10:48:12;;;;;;;10.10;4.47;;;;;;;5.04;35.99;100647.19;1772669;78;22020;-68
2022/03/10 10:50:47;;;;;;;6.85;3.50;;;;;;;5.23;36.24;100647.64;1776070;80;20990;-61
2022/03/10 10:53:31;;;;;;;7.53;3.75;;;;;;;5.14;35.08;100640.70;1769729;78;20955;-61
2022/03/10 10:56:00;;;;;;;8.63;4.47;;;;;;;5.02;35.01;100645.20;1761797;80;20963;-66
2022/03/10 10:58:27;;;;;;;11.65;4.25;;;;;;;4.87;35.83;100649.96;1774916;80;21141;-59
2022/03/10 11:00:55;;;;;;;8.88;5.17;;;;;;;4.58;36.10;100647.39;1767542;78;21400;-62
2022/03/10 11:03:26;;;;;;;8.38;4.12;;;;;;;4.79;35.83;100635.62;1767917;78;21042;-66
2022/03/10 11:05:54;;;;;;;11.60;5.97;;;;;;;4.81;35.55;100650.52;1774241;80;21531;-65
2022/03/10 11:08:23;;;;;;;13.58;6.50;;;;;;;4.83;34.88;100644.73;1770225;80;21018;-59
2022/03/10 11:10:50;;;;;;;17.92;8.48;;;;;;;4.77;35.43;100638.84;1771756;80;21050;-60
2022/03/10 11:13:18;;;;;;;9.58;4.95;;;;;;;4.88;35.66;100636.56;1766927;80;21144;-61
2022/03/10 11:15:48;;;;;;;9.25;4.35;;;;;;;4.73;36.37;100637.92;1784344;80;21037;-61
2022/03/10 11:18:15;;;;;;;17.10;7.90;;;;;;;4.70;36.32;100639.48;1771574;79;20951;-61
2022/03/10 11:20:49;;;;;;;14.78;7.08;;;;;;;4.62;36.05;100644.88;1771367;80;22076;-60
2022/03/10 11:23:39;;;;;;;13.00;6.75;;;;;;;4.79;35.60;100641.27;1766542;80;21499;-65
2022/03/10 11:26:29;;;;;;;9.10;4.75;;;;;;;4.93;34.71;100635.70;1766867;80;21078;-61
2022/03/10 11:28:58;;;;;;;7.60;3.47;;;;;;;4.70;35.13;100636.45;1734124;80;21140;-60
2022/03/10 11:31:26;;;;;;;9.43;4.22;;;;;;;4.84;35.65;100639.90;1714900;81;21024;-66
2022/03/10 11:33:55;;;;;;;8.70;3.83;;;;;;;5.00;35.04;100641.95;1716139;81;21369;-63
2022/03/10 11:36:27;;;;;;;10.80;4.95;;;;;;;4.84;34.10;100649.42;1707357;82;21554;-63
2022/03/10 11:39:03;;;;;;;9.33;4.17;;;;;;;4.86;34.34;100651.41;1715621;81;21919;-61
2022/03/10 11:41:50;;;;;;;5.67;3.10;;;;;;;4.81;34.71;100660.02;1711958;81;21139;-68
2022/03/10 11:44:21;;;;;;;8.55;3.47;;;;;;;4.93;35.18;100641.34;1688460;82;21115;-68